Medanos, Argentina
Current Conditions -  °F | °C
As of 4:00 AM on Tuesday 21 Oct 2014 (Local Time) from SAZM Reporting Station
Clear Clear  
Wind Chill: 57°   Ceiling: Unl
Heat Index: 57°   Visibility: 6mi
Dew Point: 54°   Wind: 15mph
Humidity: 88%   Direction: 20°NNE
Pressure: 30"   Gusts: NA
Location:  38.83°S, 62.68°W
Report Text: SAZM 210700Z 02013KT CAVOK 14/12 Q1016
Loading
Personal Weather Stations






























Interactive Weather Map
Tropical Storm Tracking
New forecast layout! Learn more

10-Day Weather Forecast

Advertisements
Track Severe Weather on mobile